Time;durP1;ratioP1;P1;durP2;ratioP2;P2;SDS_P1;SDS_P2;PMS_P1;PMS_P2;Temp;Humidity;BMP_temperature;BMP_pressure;BME280_temperature;BME280_humidity;BME280_pressure;Samples;Min_cycle;Max_cycle;Signal;HPM_P1;HPM_P2
2021/05/14 00:02:26;;;;;;;3.40;1.10;;;7.70;99.90;;;6.81;84.36;96745.28;4933636;29;20063;-65
2021/05/14 00:05:13;;;;;;;2.72;0.98;;;7.60;99.90;;;6.84;84.64;96750.31;4938706;29;20388;-65
2021/05/14 00:08:03;;;;;;;2.00;0.85;;;7.50;99.90;;;6.84;84.66;96738.28;4921779;29;20048;-67
2021/05/14 00:10:30;;;;;;;2.25;0.90;;;7.50;99.90;;;6.79;85.01;96742.75;4936118;29;20043;-67
2021/05/14 00:12:58;;;;;;;2.78;0.82;;;7.50;99.90;;;6.72;85.30;96743.91;4947582;29;20417;-65
2021/05/14 00:15:25;;;;;;;2.17;0.80;;;7.50;99.90;;;6.72;85.60;96749.06;4933287;29;20051;-65
2021/05/14 00:17:52;;;;;;;2.72;0.70;;;7.50;99.90;;;6.85;84.71;96739.09;4945545;29;20187;-66
2021/05/14 00:20:19;;;;;;;3.42;1.15;;;7.50;99.90;;;6.90;84.32;96740.56;4932654;29;20047;-65
2021/05/14 00:22:46;;;;;;;6.50;0.98;;;7.50;99.90;;;6.87;84.71;96737.31;4924750;29;20073;-67
2021/05/14 00:25:14;;;;;;;2.70;0.80;;;7.50;99.90;;;6.85;84.25;96742.53;4928894;29;20054;-67
2021/05/14 00:27:41;;;;;;;2.92;1.00;;;7.60;99.90;;;6.82;85.27;96732.34;4913690;29;20062;-67
2021/05/14 00:30:09;;;;;;;4.72;0.90;;;7.60;99.90;;;6.85;84.71;96749.44;4948827;29;20042;-66
2021/05/14 00:32:37;;;;;;;3.65;0.93;;;7.60;99.90;;;6.91;84.88;96739.69;4916641;29;20047;-67
2021/05/14 00:35:06;;;;;;;1.65;0.80;;;7.60;99.90;;;6.83;85.53;96731.41;4932225;29;20047;-67
2021/05/14 00:37:34;;;;;;;3.60;0.90;;;7.60;99.90;;;6.81;85.54;96733.22;4936954;29;20051;-66
2021/05/14 00:40:03;;;;;;;4.03;1.48;;;7.60;99.90;;;6.76;86.13;96734.31;4927456;29;20055;-67
2021/05/14 00:42:50;;;;;;;2.58;0.93;;;7.60;99.90;;;6.82;85.76;96727.19;4924353;29;20048;-66
2021/05/14 00:45:38;;;;;;;5.05;1.30;;;7.50;99.90;;;6.80;86.46;96741.03;4933752;29;20075;-66
2021/05/14 00:48:12;;;;;;;4.25;0.90;;;7.60;99.90;;;6.67;87.15;96735.53;4948397;29;20039;-67
2021/05/14 00:50:40;;;;;;;1.38;0.82;;;7.60;99.90;;;6.77;86.66;96739.41;4915622;29;20040;-67
2021/05/14 00:53:07;;;;;;;4.25;1.13;;;7.60;99.90;;;6.67;86.97;96735.53;4916071;29;20133;-66
2021/05/14 00:55:55;;;;;;;3.42;0.95;;;7.60;99.90;;;6.80;86.46;96726.41;4942501;29;20044;-67
2021/05/14 00:58:22;;;;;;;2.78;0.95;;;7.50;99.90;;;6.69;87.24;96726.81;4934116;29;20060;-67
2021/05/14 01:00:49;;;;;;;4.05;0.90;;;7.50;99.90;;;6.57;87.95;96729.91;4952086;29;20055;-67
2021/05/14 01:03:16;;;;;;;1.73;0.85;;;7.50;99.90;;;6.66;87.86;96732.13;4944988;29;20146;-66
2021/05/14 01:05:43;;;;;;;2.42;0.70;;;7.60;99.90;;;6.74;87.26;96730.97;4938470;29;20051;-67
2021/05/14 01:08:11;;;;;;;2.85;0.77;;;7.50;99.90;;;6.68;87.19;96734.63;4941617;29;20543;-67
2021/05/14 01:14:52;;;;;;;2.63;0.70;;;7.40;99.90;;;6.72;86.62;96728.44;4930314;29;20123;-67
2021/05/14 01:17:19;;;;;;;1.30;0.70;;;7.30;99.90;;;6.67;87.15;96731.22;4953088;29;20099;-67
2021/05/14 01:19:46;;;;;;;1.95;0.90;;;7.30;99.90;;;6.55;87.89;96736.03;4949063;29;20056;-67
2021/05/14 01:22:13;;;;;;;3.38;1.00;;;7.30;99.90;;;6.46;88.68;96732.09;4948054;29;20190;-67
2021/05/14 01:24:40;;;;;;;1.17;0.60;;;7.30;99.90;;;6.60;87.84;96727.19;4953139;29;20039;-66
2021/05/14 01:27:07;;;;;;;2.40;0.73;;;7.30;99.90;;;6.46;88.62;96738.06;4954577;29;20051;-67
2021/05/14 01:29:34;;;;;;;2.38;0.70;;;7.30;99.90;;;6.49;88.36;96734.53;4934635;29;20091;-67
2021/05/14 01:32:01;;;;;;;1.88;0.82;;;7.30;99.90;;;6.57;88.16;96734.22;4950181;29;20065;-67
2021/05/14 01:34:28;;;;;;;1.73;1.02;;;7.30;99.90;;;6.44;88.41;96732.13;4936771;29;20062;-66
2021/05/14 01:36:55;;;;;;;3.45;0.80;;;7.30;99.90;;;6.49;88.40;96735.34;4937523;29;20122;-67
2021/05/14 01:39:23;;;;;;;1.65;0.80;;;7.30;99.90;;;6.35;89.15;96731.66;4952284;29;20047;-67
2021/05/14 01:41:54;;;;;;;1.80;0.90;;;7.30;99.90;;;6.49;89.08;96726.78;4936992;29;20062;-67
2021/05/14 01:44:23;;;;;;;2.97;0.90;;;7.30;99.90;;;6.53;88.50;96727.53;4920875;29;20071;-67
2021/05/14 01:46:50;;;;;;;1.85;1.00;;;7.30;99.90;;;6.39;89.18;96728.06;4921086;29;20098;-66
2021/05/14 01:49:18;;;;;;;2.75;1.08;;;7.30;99.90;;;6.43;89.27;96724.44;4947056;29;20050;-65
2021/05/14 01:51:45;;;;;;;2.03;0.68;;;7.30;99.90;;;6.49;89.14;96726.78;4954104;29;20046;-66
2021/05/14 01:54:12;;;;;;;3.75;1.00;;;7.30;99.90;;;6.41;89.78;96728.81;4927026;29;20039;-65
2021/05/14 01:56:47;;;;;;;1.98;0.95;;;7.30;99.90;;;6.38;90.24;96728.97;4937306;29;20050;-65
2021/05/14 01:59:15;;;;;;;1.58;0.80;;;7.40;99.90;;;6.44;89.92;96726.97;4951266;29;20429;-67
2021/05/14 02:01:43;;;;;;;2.15;0.80;;;7.50;99.90;;;6.47;89.83;96732.00;4936484;29;20150;-64
2021/05/14 02:04:11;;;;;;;2.35;0.80;;;7.50;99.90;;;6.42;90.20;96722.78;4936618;29;20050;-65
2021/05/14 02:06:38;;;;;;;2.05;1.00;;;7.50;99.90;;;6.38;90.28;96731.53;4935994;29;20040;-64
2021/05/14 02:09:05;;;;;;;2.58;0.70;;;7.60;99.90;;;6.40;90.55;96727.16;4933506;29;20046;-65
2021/05/14 02:11:33;;;;;;;1.33;0.70;;;7.60;99.90;;;6.51;90.07;96732.72;4937178;29;20098;-65
2021/05/14 02:14:00;;;;;;;1.50;0.90;;;7.60;99.90;;;6.44;90.23;96733.88;4935645;29;20054;-65
2021/05/14 02:16:27;;;;;;;2.05;1.00;;;7.60;99.90;;;6.48;90.24;96728.53;4952768;29;20419;-64
2021/05/14 02:18:55;;;;;;;2.20;0.73;;;7.60;99.90;;;6.47;90.50;96729.41;4953944;29;20372;-65
2021/05/14 02:21:21;;;;;;;1.20;0.70;;;7.60;99.90;;;6.60;90.01;96731.53;4953902;29;20095;-64
2021/05/14 02:23:48;;;;;;;2.25;1.00;;;7.60;99.90;;;6.59;89.56;96728.13;4935909;29;20039;-65
2021/05/14 02:26:15;;;;;;;1.65;0.77;;;7.60;99.90;;;6.67;89.40;96720.06;4954055;29;20150;-65
2021/05/14 02:28:42;;;;;;;1.48;1.00;;;7.60;99.90;;;6.64;89.42;96715.88;4953720;29;20046;-65
2021/05/14 02:31:09;;;;;;;2.60;0.80;;;7.60;99.90;;;6.75;88.65;96714.56;4936588;29;20066;-67
2021/05/14 02:33:37;;;;;;;2.42;0.98;;;7.60;99.90;;;6.80;88.73;96716.09;4953232;29;20563;-65
2021/05/14 02:36:04;;;;;;;3.38;1.50;;;7.60;99.90;;;6.84;88.32;96706.47;4947606;29;20050;-67
2021/05/14 02:38:31;;;;;;;5.90;1.80;;;7.60;99.90;;;6.77;88.69;96710.19;4933346;29;20043;-67
2021/05/14 02:40:58;;;;;;;3.45;1.80;;;7.50;99.90;;;6.64;89.33;96710.72;4949098;29;20066;-67
2021/05/14 02:43:25;;;;;;;6.22;2.88;;;7.50;99.90;;;6.46;90.42;96714.88;4936243;29;20102;-67
2021/05/14 02:45:52;;;;;;;8.25;3.85;;;7.60;99.90;;;6.44;90.89;96721.00;4953770;29;20051;-67
2021/05/14 02:48:20;;;;;;;4.65;2.15;;;7.60;99.90;;;6.50;90.49;96713.03;4948479;29;20050;-67
2021/05/14 02:50:47;;;;;;;5.20;2.08;;;7.60;99.90;;;6.55;89.85;96723.97;4941409;29;20138;-67
2021/05/14 02:53:14;;;;;;;4.40;1.70;;;7.60;99.90;;;6.63;89.58;96711.59;4935624;29;20039;-67
2021/05/14 02:55:41;;;;;;;3.72;1.42;;;7.60;99.90;;;6.60;89.88;96716.88;4948733;29;20063;-67
2021/05/14 02:58:09;;;;;;;4.82;1.25;;;7.60;99.90;;;6.74;88.83;96707.75;4953393;29;20047;-67
2021/05/14 03:00:36;;;;;;;4.93;1.95;;;7.60;99.90;;;6.80;88.30;96717.81;4953155;29;20081;-67
2021/05/14 03:03:04;;;;;;;4.03;1.08;;;7.50;99.90;;;6.59;89.40;96710.06;4953203;28;20095;-67
2021/05/14 03:05:31;;;;;;;3.80;1.42;;;7.50;99.90;;;6.40;90.36;96716.84;4953015;29;20047;-67
2021/05/14 03:07:58;;;;;;;2.72;1.30;;;7.50;99.90;;;6.34;90.91;96714.50;4936022;29;20094;-67
2021/05/14 03:10:25;;;;;;;2.22;1.08;;;7.50;99.90;;;6.41;90.35;96713.34;4938965;29;20047;-67
2021/05/14 03:13:11;;;;;;;1.42;0.85;;;7.40;99.90;;;6.44;89.64;96716.66;4949746;29;20519;-67
2021/05/14 03:15:58;;;;;;;1.80;0.80;;;7.30;99.90;;;6.33;90.25;96713.66;4952355;28;20469;-67
2021/05/14 03:18:45;;;;;;;1.95;1.00;;;7.30;99.90;;;6.38;89.75;96716.06;4951677;28;20058;-67
2021/05/14 03:21:33;;;;;;;1.48;0.88;;;7.20;99.90;;;6.33;90.18;96711.09;4951086;29;20542;-67
2021/05/14 03:24:20;;;;;;;3.17;1.00;;;7.20;99.90;;;6.35;90.21;96721.34;4951385;29;20042;-67
2021/05/14 03:27:08;;;;;;;1.92;1.10;;;7.10;99.90;;;6.24;91.02;96717.44;4942595;29;20147;-67
2021/05/14 03:30:00;;;;;;;3.42;1.10;;;7.10;99.90;;;6.23;91.13;96726.09;4952552;28;20143;-67
2021/05/14 03:32:47;;;;;;;2.53;1.05;;;7.10;99.90;;;6.22;91.07;96726.97;4951523;29;20054;-66
2021/05/14 03:35:35;;;;;;;3.47;1.38;;;7.10;99.90;;;6.08;91.96;96718.94;4942140;29;20035;-66
2021/05/14 03:38:28;;;;;;;2.83;0.98;;;7.10;99.90;;;6.16;91.75;96714.34;4951042;29;20091;-67
2021/05/14 03:42:05;;;;;;;2.58;1.10;;;7.10;99.90;;;6.21;91.73;96719.31;4944192;29;20051;-67
2021/05/14 03:44:23;;;;;;;3.80;1.10;;;7.10;99.90;;;6.08;92.29;96721.53;4950323;29;20059;-67
2021/05/14 03:47:11;;;;;;;2.67;1.35;;;7.10;99.90;;;6.24;91.87;96708.88;4938936;29;20103;-67
2021/05/14 03:49:59;;;;;;;2.63;1.00;;;7.10;99.90;;;6.22;91.45;96714.09;4940871;29;20046;-67
2021/05/14 03:52:47;;;;;;;2.70;0.88;;;7.10;99.90;;;6.14;91.98;96721.28;4944922;29;20317;-67
2021/05/14 03:55:34;;;;;;;1.92;1.13;;;7.10;99.90;;;6.25;91.35;96711.41;4926760;28;20043;-66
2021/05/14 03:58:22;;;;;;;2.15;1.15;;;7.10;99.90;;;6.12;92.06;96717.94;4934386;29;20405;-66
2021/05/14 04:01:09;;;;;;;1.80;1.00;;;7.10;99.90;;;6.06;92.43;96715.59;4945481;29;20039;-67
2021/05/14 04:03:56;;;;;;;2.13;0.85;;;7.10;99.90;;;6.23;91.72;96720.94;4934142;29;20044;-64
2021/05/14 04:06:43;;;;;;;2.47;1.23;;;7.10;99.90;;;6.11;91.99;96718.81;4949057;28;20059;-67
2021/05/14 04:09:33;;;;;;;4.82;1.13;;;7.10;99.90;;;6.17;91.80;96717.75;4948028;29;20039;-67
2021/05/14 04:15:26;;;;;;;2.30;1.02;;;7.10;99.90;;;6.18;91.43;96722.84;4947768;29;20051;-66
2021/05/14 04:18:13;;;;;;;2.75;1.30;;;7.10;99.90;;;6.21;91.18;96712.41;4938444;29;20084;-67
2021/05/14 04:21:00;;;;;;;4.28;1.05;;;7.00;99.90;;;6.06;91.62;96720.72;4943361;29;20059;-66
2021/05/14 04:23:48;;;;;;;2.13;0.88;;;7.00;99.90;;;6.17;91.14;96720.34;4942087;29;20126;-67
2021/05/14 04:26:35;;;;;;;2.95;1.17;;;7.00;99.90;;;6.22;90.83;96724.41;4948462;29;20043;-64
2021/05/14 04:29:24;;;;;;;3.70;1.40;;;7.00;99.90;;;6.08;91.21;96722.34;4925612;29;20463;-67
2021/05/14 04:32:11;;;;;;;2.47;1.17;;;7.00;99.90;;;6.01;91.79;96731.22;4942150;29;20051;-67
2021/05/14 04:34:59;;;;;;;5.50;1.20;;;7.00;99.90;;;5.96;92.16;96740.03;4942919;28;20515;-67
2021/05/14 04:37:46;;;;;;;1.60;0.90;;;7.00;99.90;;;6.15;91.72;96722.97;4940826;28;20046;-64
2021/05/14 04:40:33;;;;;;;2.03;1.00;;;7.00;99.90;;;6.19;91.04;96726.25;4950612;29;20509;-66
2021/05/14 04:43:21;;;;;;;2.47;1.20;;;7.00;99.90;;;6.05;91.59;96727.63;4949369;29;20373;-67
2021/05/14 04:46:09;;;;;;;3.10;1.20;;;7.00;99.90;;;5.95;92.68;96733.19;4936512;29;20436;-67
2021/05/14 04:49:14;;;;;;;3.58;1.55;;;7.10;99.90;;;5.95;92.84;96730.59;4948086;29;20119;-67
2021/05/14 04:51:49;;;;;;;3.42;1.25;;;7.10;99.90;;;5.96;92.46;96727.97;4924931;29;20063;-67
2021/05/14 04:54:16;;;;;;;2.58;1.40;;;7.10;99.90;;;6.00;92.77;96736.44;4918001;29;20488;-67
2021/05/14 04:56:43;;;;;;;4.32;1.40;;;7.10;99.90;;;6.00;92.57;96729.56;4930577;29;20517;-66
2021/05/14 04:59:10;;;;;;;2.38;1.25;;;7.20;99.90;;;5.98;92.73;96735.66;4936475;29;20113;-66
2021/05/14 05:01:41;;;;;;;2.85;1.27;;;7.20;99.90;;;6.07;92.29;96736.16;4925966;29;20126;-66
2021/05/14 05:04:08;;;;;;;3.58;1.30;;;7.20;99.90;;;5.94;93.01;96731.47;4951213;29;20054;-66
2021/05/14 05:06:36;;;;;;;3.35;1.30;;;7.30;99.90;;;5.99;92.99;96737.31;4950775;29;20047;-66
2021/05/14 05:09:04;;;;;;;3.03;1.60;;;7.30;99.90;;;6.04;92.70;96735.41;4930936;29;20059;-66
2021/05/14 05:11:32;;;;;;;2.92;1.33;;;7.30;99.90;;;6.01;93.22;96740.69;4951035;29;20039;-66
2021/05/14 05:13:59;;;;;;;2.60;1.15;;;7.40;99.90;;;6.19;92.37;96731.41;4931831;29;20103;-65
2021/05/14 05:16:26;;;;;;;3.22;1.40;;;7.40;99.90;;;6.36;91.35;96738.47;4917635;29;20074;-66
2021/05/14 05:19:13;;;;;;;3.25;1.45;;;7.40;99.90;;;6.40;90.95;96745.19;4950247;29;20048;-66
2021/05/14 05:22:01;;;;;;;3.53;1.58;;;7.30;99.90;;;6.44;90.80;96741.63;4946223;28;20122;-65
2021/05/14 05:24:48;;;;;;;3.53;1.63;;;7.40;99.90;;;6.51;90.90;96744.78;4950470;29;20051;-66
2021/05/14 05:27:36;;;;;;;4.07;1.73;;;7.50;99.90;;;6.38;91.28;96752.16;4949891;29;20051;-66
2021/05/14 05:30:24;;;;;;;2.45;1.33;;;7.50;99.90;;;6.47;91.05;96750.03;4948264;29;20051;-65
2021/05/14 05:33:12;;;;;;;3.40;1.58;;;7.50;99.90;;;6.63;90.16;96747.69;4949028;28;20062;-66
2021/05/14 05:35:59;;;;;;;4.13;1.90;;;7.50;99.90;;;6.48;91.07;96748.34;4948023;29;20063;-65
2021/05/14 05:38:47;;;;;;;4.00;1.52;;;7.50;99.90;;;6.59;90.87;96747.88;4948043;29;20173;-66
2021/05/14 05:41:34;;;;;;;3.28;1.63;;;7.60;99.90;;;6.68;90.15;96758.69;4951182;28;20400;-66
2021/05/14 05:44:21;;;;;;;2.97;1.60;;;7.70;99.90;;;7.01;89.28;96758.22;4945227;29;20055;-66
2021/05/14 05:47:10;;;;;;;3.58;1.58;;;7.90;99.90;;;7.01;89.31;96757.38;4947744;28;20039;-66
2021/05/14 05:49:59;;;;;;;7.18;2.90;;;8.00;99.90;;;7.04;88.68;96762.41;4952127;29;20048;-66
2021/05/14 05:52:46;;;;;;;6.80;3.25;;;8.00;99.90;;;6.85;89.76;96770.91;4944411;28;20046;-66
2021/05/14 05:55:33;;;;;;;7.97;4.70;;;8.10;99.90;;;6.56;91.33;96774.63;4940266;28;20108;-66
2021/05/14 05:58:21;;;;;;;6.20;4.30;;;8.20;99.90;;;6.58;91.42;96777.16;4954129;28;20058;-66
2021/05/14 06:01:08;;;;;;;5.90;4.43;;;8.30;99.90;;;6.68;91.00;96775.88;4952599;29;20166;-65
2021/05/14 06:03:55;;;;;;;9.77;6.05;;;8.20;99.90;;;6.61;91.17;96777.03;4936474;29;20084;-66
2021/05/14 06:06:43;;;;;;;6.75;4.88;;;8.20;99.90;;;6.97;90.31;96779.03;4920515;29;20515;-66
2021/05/14 06:09:30;;;;;;;7.10;5.05;;;8.20;99.90;;;7.25;88.74;96773.56;4926522;29;20361;-66
2021/05/14 06:12:17;;;;;;;8.65;5.10;;;8.30;99.90;;;7.18;88.48;96762.66;4945378;29;20412;-65
2021/05/14 06:14:44;;;;;;;8.80;5.45;;;8.40;99.90;;;7.30;88.18;96774.22;4954343;29;20046;-65
2021/05/14 06:17:12;;;;;;;8.68;5.43;;;8.60;99.90;;;7.59;87.32;96767.78;4936598;29;20051;-66
2021/05/14 06:19:45;;;;;;;7.13;4.82;;;8.70;99.90;;;7.43;88.02;96770.19;4948957;29;20055;-66
2021/05/14 06:22:13;;;;;;;7.75;4.13;;;9.00;99.90;;;7.85;86.72;96769.22;4936528;29;20416;-65
2021/05/14 06:24:39;;;;;;;5.75;4.15;;;9.10;99.90;;;7.92;85.94;96770.63;4934448;29;20074;-66
2021/05/14 06:27:07;;;;;;;7.05;3.45;;;9.20;99.90;;;8.19;84.61;96770.28;4920507;29;20472;-66
2021/05/14 06:29:54;;;;;;;5.53;3.30;;;9.20;99.90;;;8.32;83.91;96776.56;4953575;29;20039;-66
2021/05/14 06:32:42;;;;;;;6.70;3.55;;;9.30;99.90;;;8.44;83.95;96782.09;4948598;29;20054;-65
2021/05/14 06:35:30;;;;;;;6.28;3.42;;;9.40;99.90;;;8.86;83.69;96773.22;4938284;29;20095;-66
2021/05/14 06:38:17;;;;;;;6.43;3.33;;;9.70;99.90;;;8.74;82.57;96780.66;4949406;29;20046;-66
2021/05/14 06:41:04;;;;;;;5.18;2.95;;;9.90;99.90;;;8.93;82.69;96782.34;4934770;29;20039;-66
2021/05/14 06:43:52;;;;;;;3.60;2.65;;;10.00;99.90;;;9.34;81.74;96767.34;4946707;28;20051;-65
2021/05/14 06:46:39;;;;;;;4.10;2.42;;;10.10;99.90;;;9.50;81.22;96766.56;4952356;29;20054;-66
2021/05/14 06:49:28;;;;;;;3.40;2.05;;;10.30;99.90;;;9.39;79.23;96777.47;4948280;29;20048;-66
2021/05/14 06:52:15;;;;;;;3.88;1.67;;;10.40;99.90;;;9.58;80.49;96774.81;4948010;28;20055;-65
2021/05/14 06:55:10;;;;;;;2.90;1.65;;;10.70;99.90;;;10.15;79.54;96774.38;4948885;29;20047;-66
2021/05/14 06:57:57;;;;;;;2.90;1.60;;;10.90;99.90;;;10.08;78.55;96778.22;4952805;29;20051;-66
2021/05/14 07:00:45;;;;;;;4.18;1.30;;;11.20;99.90;;;10.69;78.28;96777.53;4949660;29;20066;-66
2021/05/14 07:03:32;;;;;;;4.50;1.48;;;11.50;99.90;;;10.85;77.07;96777.50;4937629;29;20062;-66
2021/05/14 07:06:24;;;;;;;5.22;1.60;;;11.70;99.90;;;11.24;76.19;96773.53;4937793;28;20043;-66
2021/05/14 07:09:12;;;;;;;2.63;1.25;;;12.00;99.90;;;11.36;75.39;96772.84;4950512;29;20062;-66
2021/05/14 07:12:04;;;;;;;3.30;1.45;;;12.30;99.90;;;10.70;76.17;96776.59;4921103;29;20043;-66
2021/05/14 07:14:52;;;;;;;3.63;1.00;;;12.30;99.90;;;10.46;75.37;96782.22;4941238;28;20047;-66
2021/05/14 07:17:35;;;;;;;2.42;1.08;;;12.00;99.90;;;10.33;75.62;96785.56;4952059;29;20071;-66
2021/05/14 07:20:05;;;;;;;2.65;1.23;;;12.00;99.90;;;10.33;75.89;96789.03;4943457;29;20070;-66
2021/05/14 07:22:32;;;;;;;1.85;1.00;;;12.00;99.90;;;10.78;74.74;96781.38;4928194;29;20040;-66
2021/05/14 07:24:59;;;;;;;2.03;1.08;;;11.90;99.90;;;10.91;74.87;96784.13;4951206;29;20073;-66
2021/05/14 07:27:46;;;;;;;2.10;0.80;;;12.00;99.90;;;11.05;72.53;96784.16;4935615;29;20051;-66
2021/05/14 07:30:34;;;;;;;3.67;2.00;;;12.00;99.90;;;11.29;72.05;96790.53;4948998;29;20384;-66
2021/05/14 07:33:21;;;;;;;2.47;0.77;;;12.00;99.90;;;10.86;72.21;96785.22;4935120;29;20729;-66
2021/05/14 07:36:07;;;;;;;3.58;0.80;;;12.10;99.90;;;11.35;72.27;96778.94;4941487;29;20050;-66
2021/05/14 07:38:55;;;;;;;2.22;0.70;;;12.30;99.90;;;11.48;71.28;96779.06;4937495;29;20156;-65
2021/05/14 07:41:42;;;;;;;2.15;0.70;;;12.40;99.90;;;10.89;71.36;96784.19;4933332;29;20452;-66
2021/05/14 07:44:29;;;;;;;1.88;0.70;;;12.30;99.90;;;11.64;70.73;96773.81;4950832;28;20071;-66
2021/05/14 07:47:17;;;;;;;1.85;0.63;;;12.60;99.90;;;12.44;69.21;96779.34;4936870;29;20062;-66
2021/05/14 07:50:12;;;;;;;1.85;0.52;;;13.20;99.90;;;12.56;68.33;96776.78;4879299;29;20048;-65
2021/05/14 07:52:58;;;;;;;1.55;0.52;;;13.70;99.90;;;13.12;67.04;96773.25;4878376;29;20043;-66
2021/05/14 07:55:46;;;;;;;3.10;0.70;;;13.90;99.90;;;12.43;65.02;96782.88;4882456;29;20052;-67
2021/05/14 07:58:33;;;;;;;1.33;0.50;;;13.80;99.90;;;12.86;66.85;96767.13;4886253;29;20075;-66
2021/05/14 08:01:20;;;;;;;3.33;0.60;;;14.00;99.90;;;13.03;64.29;96766.06;4893610;28;20100;-66
2021/05/14 08:04:08;;;;;;;1.08;0.40;;;14.40;99.90;;;13.53;63.75;96764.50;4895161;29;20128;-66
2021/05/14 08:06:55;;;;;;;1.73;0.40;;;14.70;99.90;;;13.36;62.71;96766.47;4892862;28;20618;-67
2021/05/14 08:09:44;;;;;;;1.45;0.50;;;14.80;99.90;;;13.60;61.66;96773.56;4890566;29;20120;-67
2021/05/14 08:12:31;;;;;;;2.13;0.40;;;15.00;99.90;;;13.63;59.46;96773.34;4884777;29;21229;-67
2021/05/14 08:15:38;;;;;;;1.80;0.40;;;15.40;99.90;;;13.47;59.54;96776.16;4891026;29;20398;-67
2021/05/14 08:18:26;;;;;;;0.57;0.30;;;15.50;99.90;;;13.12;59.68;96781.06;4867508;29;20072;-67
2021/05/14 08:21:13;;;;;;;0.68;0.20;;;15.60;99.90;;;13.88;59.38;96769.91;4891949;29;20048;-67
2021/05/14 08:24:00;;;;;;;1.05;0.30;;;15.70;99.90;;;14.22;58.46;96781.44;4889057;29;20201;-67
2021/05/14 08:26:48;;;;;;;0.55;0.28;;;16.20;99.90;;;14.30;54.49;96783.53;4903551;28;20078;-67
2021/05/14 08:29:37;;;;;;;1.15;0.30;;;16.20;99.90;;;15.40;53.09;96766.88;4942325;29;20043;-66
2021/05/14 08:32:24;;;;;;;2.00;0.30;;;16.20;99.90;;;16.00;51.89;96762.34;4938056;29;20079;-67
2021/05/14 08:35:12;;;;;;;1.27;0.30;;;16.90;99.90;;;14.02;55.52;96780.22;4943452;29;20050;-67
2021/05/14 08:37:59;;;;;;;0.47;0.20;;;16.80;99.90;;;13.99;56.65;96775.22;4931162;29;20039;-66
2021/05/14 08:40:46;;;;;;;0.75;0.32;;;16.20;99.90;;;13.48;57.45;96780.44;4938280;29;20048;-67
2021/05/14 08:43:34;;;;;;;1.05;0.30;;;16.40;99.90;;;14.84;52.14;96772.69;4942471;29;20051;-66
2021/05/14 08:46:25;;;;;;;1.13;0.43;;;16.00;99.90;;;14.89;50.03;96777.59;4940655;28;20475;-66
2021/05/14 08:49:18;;;;;;;1.40;0.20;;;16.20;99.90;;;14.21;51.23;96782.41;4937055;29;20046;-67
2021/05/14 08:52:09;;;;;;;0.40;0.30;;;16.90;99.90;;;16.19;47.53;96763.50;4931464;28;20111;-66
2021/05/14 08:54:59;;;;;;;0.38;0.20;;;17.30;99.90;;;17.13;46.52;96760.34;4930021;29;20035;-67
2021/05/14 08:57:46;;;;;;;0.68;0.30;;;17.90;99.90;;;15.03;50.53;96776.63;4927186;29;20050;-67
2021/05/14 09:00:33;;;;;;;1.02;0.30;;;17.60;99.90;;;14.92;51.55;96764.31;4952694;28;20060;-67
2021/05/14 09:03:21;;;;;;;0.70;0.20;;;17.30;99.90;;;15.58;49.65;96775.13;4948638;28;20158;-67
2021/05/14 09:06:09;;;;;;;1.35;0.25;;;17.00;99.90;;;14.22;50.80;96784.06;4946435;29;20063;-67
2021/05/14 09:09:00;;;;;;;1.60;0.43;;;16.70;99.90;;;14.31;52.92;96779.13;4921587;29;20044;-67
2021/05/14 09:11:51;;;;;;;1.20;0.38;;;16.70;99.90;;;13.53;52.71;96785.34;4940660;28;20039;-67
2021/05/14 09:14:42;;;;;;;2.77;0.50;;;16.40;99.90;;;14.32;50.26;96779.03;4944319;28;20457;-67
2021/05/14 09:17:29;;;;;;;1.73;0.40;;;15.80;99.90;;;15.43;50.42;96769.25;4939859;28;20050;-67
2021/05/14 09:20:34;;;;;;;1.77;0.55;;;16.40;99.90;;;15.42;50.75;96764.97;4954307;29;20460;-67
2021/05/14 09:23:28;;;;;;;3.88;0.60;;;17.40;99.90;;;15.64;49.42;96772.00;4952963;29;20095;-67
2021/05/14 09:26:15;;;;;;;1.30;0.50;;;18.30;99.90;;;18.09;46.06;96757.63;4942061;28;20054;-65
2021/05/14 09:29:03;;;;;;;1.98;0.50;;;18.70;99.90;;;17.93;46.40;96755.50;4946902;28;20070;-65
2021/05/14 09:31:51;;;;;;;0.95;0.30;;;19.10;99.90;;;17.62;43.39;96768.53;4938972;29;20062;-69
2021/05/14 09:34:39;;;;;;;0.90;0.40;;;19.40;99.90;;;17.07;47.86;96765.25;4928990;29;20521;-65
2021/05/14 09:37:28;;;;;;;2.30;0.40;;;19.60;99.90;;;17.09;45.46;96758.94;4949344;29;20046;-64
2021/05/14 09:40:22;;;;;;;1.60;0.40;;;19.30;99.90;;;15.80;46.98;96763.84;4943948;29;20055;-66
2021/05/14 09:43:10;;;;;;;1.55;0.40;;;19.50;99.90;;;15.56;47.63;96766.53;4950001;29;20472;-66
2021/05/14 09:45:57;;;;;;;1.88;0.30;;;19.70;99.90;;;16.96;43.46;96752.19;4932733;29;20047;-66
2021/05/14 09:48:57;;;;;;;1.55;0.30;;;19.40;99.90;;;16.29;45.86;96751.38;4945986;29;20063;-66
2021/05/14 09:52:06;;;;;;;2.45;0.45;;;19.70;99.50;;;15.23;45.84;96762.06;4950762;28;20042;-66
2021/05/14 09:54:58;;;;;;;2.28;0.40;;;19.60;98.30;;;16.01;46.01;96750.94;4923277;29;20195;-66
2021/05/14 09:57:50;;;;;;;2.97;0.40;;;18.10;99.90;;;16.02;45.78;96747.34;4943898;29;20059;-66
2021/05/14 10:00:38;;;;;;;1.00;0.40;;;17.80;99.90;;;15.81;46.41;96765.53;4950896;29;20050;-66
2021/05/14 10:03:27;;;;;;;3.28;0.45;;;18.70;99.90;;;16.08;46.50;96761.75;4934833;29;20040;-67
2021/05/14 10:06:16;;;;;;;1.15;0.40;;;19.10;99.90;;;16.51;46.28;96764.44;4946627;29;20035;-67
2021/05/14 10:09:06;;;;;;;3.05;0.50;;;19.30;99.90;;;16.63;50.35;96770.50;4936001;29;20496;-66
2021/05/14 10:11:33;;;;;;;0.82;0.20;;;18.60;99.90;;;16.15;44.13;96759.47;4957005;28;20043;-66
2021/05/14 10:14:03;;;;;;;0.43;0.20;;;17.60;99.90;;;14.63;48.46;96774.28;4951765;28;20427;-65
2021/05/14 10:16:30;;;;;;;1.42;0.60;;;16.90;99.90;;;13.88;51.75;96769.91;4946837;28;20069;-65
2021/05/14 10:18:58;;;;;;;1.95;0.50;;;16.40;99.90;;;13.55;54.67;96773.88;4945038;29;20074;-66
2021/05/14 10:21:26;;;;;;;5.15;0.70;;;15.90;99.90;;;13.28;56.97;96773.13;4946392;29;20047;-65
2021/05/14 10:23:57;;;;;;;2.95;0.70;;;15.30;99.90;;;13.47;59.73;96773.53;4945978;29;20051;-65
2021/05/14 10:26:37;;;;;;;2.03;0.50;;;14.90;99.90;;;13.80;55.51;96767.81;4953154;28;20040;-66
2021/05/14 10:29:37;;;;;;;3.92;0.63;;;14.90;99.90;;;14.00;56.79;96776.03;4940284;29;20047;-66
2021/05/14 10:32:56;;;;;;;1.02;0.40;;;15.80;99.90;;;15.55;52.96;96761.41;4950782;29;20040;-65
2021/05/14 10:35:44;;;;;;;1.80;0.47;;;16.20;99.90;;;16.29;53.29;96752.19;4909015;29;20395;-65
2021/05/14 10:38:31;;;;;;;1.92;0.50;;;17.50;99.90;;;17.96;46.36;96742.91;4939224;28;20047;-66
2021/05/14 10:40:59;;;;;;;2.33;0.40;;;18.60;99.90;;;17.44;52.83;96741.22;4901745;29;20111;-66
2021/05/14 10:44:06;;;;;;;0.85;0.30;;;19.50;99.90;;;16.24;50.03;96756.16;4928805;29;20078;-66
2021/05/14 10:46:34;;;;;;;1.33;0.30;;;19.20;99.90;;;14.20;54.74;96769.44;4943804;29;20047;-66
2021/05/14 10:49:11;;;;;;;2.22;0.40;;;17.70;99.90;;;12.80;57.88;96788.38;4934976;29;20062;-65
2021/05/14 10:51:57;;;;;;;0.73;0.30;;;16.80;99.90;;;13.27;58.93;96772.22;4922384;29;20051;-66
2021/05/14 10:54:42;;;;;;;4.72;0.50;;;15.40;99.90;;;12.70;61.51;96768.13;4938144;29;20153;-66
2021/05/14 10:57:39;;;;;;;0.98;0.38;;;14.50;99.90;;;13.38;60.19;96763.72;4949274;28;20126;-66
2021/05/14 11:00:26;;;;;;;2.08;0.30;;;14.30;99.90;;;13.81;60.95;96763.44;4936654;29;20054;-65
2021/05/14 11:03:11;;;;;;;1.25;0.30;;;14.30;99.90;;;14.54;58.26;96760.09;4934234;29;20051;-65
2021/05/14 11:06:18;;;;;;;1.25;0.30;;;14.70;99.90;;;15.85;52.04;96764.38;4940733;29;20441;-66
2021/05/14 11:09:07;;;;;;;0.60;0.30;;;16.30;99.90;;;16.81;49.00;96749.88;4942569;29;20380;-66
2021/05/14 11:12:30;;;;;;;1.85;0.40;;;17.70;99.90;;;16.79;47.67;96757.00;4898805;29;20145;-66
2021/05/14 11:15:17;;;;;;;0.82;0.22;;;17.80;99.90;;;15.71;44.53;96761.94;4899156;29;20067;-65
2021/05/14 11:18:14;;;;;;;1.67;0.38;;;17.20;99.90;;;13.67;54.62;96800.06;4894486;29;20655;-66
2021/05/14 11:21:00;;;;;;;0.88;0.30;;;16.80;99.90;;;12.36;57.73;96774.63;4907267;29;20190;-66
2021/05/14 11:24:06;;;;;;;1.08;0.30;;;16.30;99.90;;;12.53;59.27;96797.00;4889847;29;20044;-65
2021/05/14 11:26:33;;;;;;;0.40;0.20;;;15.20;99.90;;;12.36;58.08;96795.44;4906005;29;20041;-65
2021/05/14 11:29:33;;;;;;;1.02;0.30;;;14.70;99.90;;;11.85;60.76;96803.69;4904843;29;20440;-65
2021/05/14 11:32:12;;;;;;;2.55;0.40;;;14.20;99.90;;;11.90;63.11;96801.69;4916925;29;20515;-65
2021/05/14 11:35:23;;;;;;;0.57;0.20;;;13.60;99.90;;;11.22;64.39;96812.63;4935553;29;20047;-65